Time;durP1;ratioP1;P1;durP2;ratioP2;P2;SDS_P1;SDS_P2;PMS_P1;PMS_P2;Temp;Humidity;BMP_temperature;BMP_pressure;BME280_temperature;BME280_humidity;BME280_pressure;Samples;Min_cycle;Max_cycle;Signal;HPM_P1;HPM_P2
2022/03/05 07:01:03;;;;;;;10.32;1.23;;;;;;;;;;5562711;23;20090;-81
2022/03/05 07:03:31;;;;;;;15.63;1.85;;;;;;;;;;4877398;29;20471;-81
2022/03/05 07:05:57;;;;;;;10.50;1.83;;;;;;;;;;4895701;29;20113;-81
2022/03/05 07:08:24;;;;;;;10.48;1.48;;;;;;;;;;4895278;29;20524;-81
2022/03/05 07:10:50;;;;;;;6.88;1.48;;;;;;;;;;4895347;29;20232;-81
2022/03/05 07:13:17;;;;;;;11.90;2.28;;;;;;;;;;4909638;29;20044;-82
2022/03/05 07:15:44;;;;;;;5.85;1.85;;;;;;;;;;4894954;29;20079;-81
2022/03/05 07:18:11;;;;;;;10.35;2.30;;;;;;;;;;4895034;29;20477;-81
2022/03/05 07:20:37;;;;;;;11.70;2.20;;;;;;;;;;4895428;29;20048;-80
2022/03/05 07:23:04;;;;;;;13.57;1.60;;;;;;;;;;4896132;29;20044;-80
2022/03/05 07:25:39;;;;;;;14.43;1.55;;;;;;;;;;4898981;29;20284;-81
2022/03/05 07:28:07;;;;;;;12.88;1.80;;;;;;;;;;4897953;29;20055;-81
2022/03/05 07:30:33;;;;;;;12.52;2.10;;;;;;;;;;4897489;29;20040;-82
2022/03/05 07:33:00;;;;;;;13.48;1.83;;;;;;;;;;4900015;29;20393;-81
2022/03/05 07:35:26;;;;;;;11.63;1.88;;;;;;;;;;4898287;29;20505;-81
2022/03/05 07:37:53;;;;;;;9.25;2.25;;;;;;;;;;4898995;29;20075;-82
2022/03/05 07:40:20;;;;;;;12.18;2.00;;;;;;;;;;4897783;29;20049;-82
2022/03/05 07:42:46;;;;;;;12.18;1.60;;;;;;;;;;4899407;29;20085;-81
2022/03/05 07:45:13;;;;;;;6.90;1.90;;;;;;;;;;4880625;29;20056;-80
2022/03/05 07:47:40;;;;;;;8.07;1.42;;;;;;;;;;4901581;29;20053;-80
2022/03/05 07:50:07;;;;;;;10.88;1.30;;;;;;;;;;4898626;29;20394;-81
2022/03/05 07:52:33;;;;;;;12.38;1.75;;;;;;;;;;4898836;29;20522;-81
2022/03/05 07:55:00;;;;;;;7.95;1.35;;;;;;;;;;4906937;29;20405;-81
2022/03/05 07:57:27;;;;;;;10.05;1.90;;;;;;;;;;4899460;29;20052;-80
2022/03/05 07:59:53;;;;;;;21.13;2.22;;;;;;;;;;4898565;29;20087;-81
2022/03/05 08:02:40;;;;;;;9.40;1.23;;;;;;;;;;4898093;29;20048;-81
2022/03/05 08:05:07;;;;;;;13.65;1.55;;;;;;;;;;4907960;29;20044;-81
2022/03/05 08:07:34;;;;;;;15.13;2.17;;;;;;;;;;4897974;29;20306;-81
2022/03/05 08:10:00;;;;;;;11.20;1.73;;;;;;;;;;4897592;29;20172;-81
2022/03/05 08:12:27;;;;;;;14.93;2.42;;;;;;;;;;4908303;29;20063;-82
2022/03/05 08:14:54;;;;;;;9.55;2.28;;;;;;;;;;4902221;29;20580;-82
2022/03/05 08:17:20;;;;;;;12.27;2.00;;;;;;;;;;4897328;29;20049;-82
2022/03/05 08:19:47;;;;;;;8.70;2.10;;;;;;;;;;4899390;29;20052;-81
2022/03/05 08:22:20;;;;;;;9.77;1.58;;;;;;;;;;4897383;29;20048;-81
2022/03/05 08:24:47;;;;;;;6.93;2.25;;;;;;;;;;4897218;29;20077;-82
2022/03/05 08:27:14;;;;;;;8.25;2.13;;;;;;;;;;4897757;29;20402;-81
2022/03/05 08:29:40;;;;;;;13.63;3.53;;;;;;;;;;4897965;29;20084;-81
2022/03/05 08:32:08;;;;;;;15.45;3.38;;;;;;;;;;4897145;29;20049;-81
2022/03/05 08:34:35;;;;;;;12.07;2.85;;;;;;;;;;4897065;29;20044;-81
2022/03/05 08:37:02;;;;;;;10.68;2.17;;;;;;;;;;4896832;29;20131;-81
2022/03/05 08:39:28;;;;;;;8.48;2.20;;;;;;;;;;4908023;29;20044;-81
2022/03/05 08:41:55;;;;;;;8.35;1.55;;;;;;;;;;4900594;29;20040;-80
2022/03/05 08:44:22;;;;;;;4.18;1.75;;;;;;;;;;4897541;29;20640;-80
2022/03/05 08:46:48;;;;;;;5.70;1.80;;;;;;;;;;4902969;29;20132;-81
2022/03/05 08:49:15;;;;;;;8.18;1.48;;;;;;;;;;4896599;29;20057;-81
2022/03/05 08:51:43;;;;;;;8.68;1.98;;;;;;;;;;4902572;29;20917;-81
2022/03/05 08:54:09;;;;;;;4.07;1.20;;;;;;;;;;4901610;29;20113;-81
2022/03/05 08:56:36;;;;;;;4.47;1.08;;;;;;;;;;4897216;29;20044;-84
2022/03/05 08:59:02;;;;;;;5.05;1.50;;;;;;;;;;4898448;29;20057;-82
2022/03/05 09:01:29;;;;;;;4.70;1.30;;;;;;;;;;4892972;29;20060;-82
2022/03/05 09:03:56;;;;;;;4.10;1.05;;;;;;;;;;4907328;29;20100;-83
2022/03/05 09:06:23;;;;;;;31.48;2.42;;;;;;;;;;4890109;29;20109;-80
2022/03/05 09:08:49;;;;;;;3.90;1.42;;;;;;;;;;4872765;29;20088;-82
2022/03/05 09:11:17;;;;;;;5.10;1.25;;;;;;;;;;4888351;29;20045;-82
2022/03/05 09:13:43;;;;;;;5.78;1.10;;;;;;;;;;4896225;29;20083;-81
2022/03/05 09:16:10;;;;;;;6.78;1.35;;;;;;;;;;4874175;29;20418;-82
2022/03/05 09:18:37;;;;;;;4.53;1.35;;;;;;;;;;4892176;29;20466;-83
2022/03/05 09:21:03;;;;;;;13.30;1.45;;;;;;;;;;4890789;29;20410;-82
2022/03/05 09:23:30;;;;;;;5.72;1.70;;;;;;;;;;4886750;29;20052;-82
2022/03/05 09:25:56;;;;;;;6.85;1.65;;;;;;;;;;4894244;29;20092;-81
2022/03/05 09:28:23;;;;;;;5.75;1.33;;;;;;;;;;4879269;29;20113;-81
2022/03/05 09:30:50;;;;;;;4.88;1.30;;;;;;;;;;4892299;29;20041;-81
2022/03/05 09:33:17;;;;;;;6.10;1.35;;;;;;;;;;4895545;29;20068;-81
2022/03/05 09:35:44;;;;;;;4.57;1.33;;;;;;;;;;4885552;29;20112;-81
2022/03/05 09:38:10;;;;;;;3.67;1.10;;;;;;;;;;4885409;29;20052;-82
2022/03/05 09:40:38;;;;;;;3.22;1.13;;;;;;;;;;4888815;29;20521;-81
2022/03/05 09:43:05;;;;;;;7.95;2.15;;;;;;;;;;4880970;29;20129;-81
2022/03/05 09:45:33;;;;;;;5.60;1.40;;;;;;;;;;4884268;29;20110;-82
2022/03/05 09:48:00;;;;;;;2.95;1.27;;;;;;;;;;4890012;29;20056;-80
2022/03/05 09:50:34;;;;;;;5.45;1.40;;;;;;;;;;4873349;29;20052;-83
2022/03/05 09:53:01;;;;;;;4.95;1.05;;;;;;;;;;4891939;29;20408;-80
2022/03/05 09:55:27;;;;;;;3.28;1.17;;;;;;;;;;4890990;29;20414;-82
2022/03/05 09:57:54;;;;;;;4.10;1.17;;;;;;;;;;4891816;29;20513;-81
2022/03/05 10:00:21;;;;;;;2.33;1.00;;;;;;;;;;4889623;29;20053;-82
2022/03/05 10:02:48;;;;;;;4.78;1.10;;;;;;;;;;4886021;29;20056;-82
2022/03/05 10:05:19;;;;;;;5.22;1.15;;;;;;;;;;4885717;29;20134;-81
2022/03/05 10:08:10;;;;;;;2.80;1.00;;;;;;;;;;4888677;29;20044;-83
2022/03/05 10:10:46;;;;;;;6.32;1.10;;;;;;;;;;4890709;29;20055;-81
2022/03/05 10:13:17;;;;;;;5.93;1.20;;;;;;;;;;4894733;29;20586;-82
2022/03/05 10:15:44;;;;;;;3.00;0.95;;;;;;;;;;4889451;29;20471;-81
2022/03/05 10:18:11;;;;;;;4.47;1.20;;;;;;;;;;4888199;29;20412;-82
2022/03/05 10:20:50;;;;;;;2.30;1.10;;;;;;;;;;4883111;29;20125;-82
2022/03/05 10:23:19;;;;;;;4.35;1.20;;;;;;;;;;4883968;29;20055;-83
2022/03/05 10:25:48;;;;;;;4.65;1.25;;;;;;;;;;4886275;29;20072;-82
2022/03/05 10:28:18;;;;;;;3.65;1.00;;;;;;;;;;4889024;29;20442;-82
2022/03/05 10:30:52;;;;;;;4.32;1.30;;;;;;;;;;4885878;29;20487;-83
2022/03/05 10:33:36;;;;;;;5.72;1.20;;;;;;;;;;4889298;29;20096;-82
2022/03/05 10:36:24;;;;;;;6.43;1.52;;;;;;;;;;4889763;29;20061;-82
2022/03/05 10:39:02;;;;;;;7.18;1.67;;;;;;;;;;4888927;29;20041;-81
2022/03/05 10:41:39;;;;;;;4.73;1.50;;;;;;;;;;4886322;29;20494;-81
2022/03/05 10:44:08;;;;;;;7.00;1.95;;;;;;;;;;4887253;29;20097;-80
2022/03/05 10:46:42;;;;;;;7.03;1.80;;;;;;;;;;4888020;29;20056;-79
2022/03/05 10:49:39;;;;;;;5.65;1.48;;;;;;;;;;4884629;29;20056;-80
2022/03/05 10:52:07;;;;;;;6.05;1.60;;;;;;;;;;4884994;29;20060;-79
2022/03/05 10:54:43;;;;;;;7.82;1.88;;;;;;;;;;4888573;29;20052;-80
2022/03/05 10:57:18;;;;;;;5.53;1.52;;;;;;;;;;4885905;29;20045;-79
2022/03/05 10:59:53;;;;;;;6.80;1.48;;;;;;;;;;4887616;29;20573;-80
2022/03/05 11:02:21;;;;;;;11.40;1.70;;;;;;;;;;4894260;29;20057;-80
2022/03/05 11:04:51;;;;;;;8.05;1.83;;;;;;;;;;4895823;29;20048;-79
2022/03/05 11:07:19;;;;;;;8.05;1.85;;;;;;;;;;4890065;29;20504;-80
2022/03/05 11:09:49;;;;;;;6.47;1.67;;;;;;;;;;4890730;29;20113;-81
2022/03/05 11:12:17;;;;;;;7.55;1.80;;;;;;;;;;4896643;29;20040;-82
2022/03/05 11:14:46;;;;;;;8.23;1.70;;;;;;;;;;4889148;29;20053;-81
2022/03/05 11:17:13;;;;;;;6.10;1.83;;;;;;;;;;4867789;29;20438;-81
2022/03/05 11:19:40;;;;;;;6.60;1.75;;;;;;;;;;4890863;29;20131;-80
2022/03/05 11:22:11;;;;;;;10.63;2.22;;;;;;;;;;4886654;29;20044;-82
2022/03/05 11:24:40;;;;;;;8.98;1.85;;;;;;;;;;4889140;29;20155;-81
2022/03/05 11:27:12;;;;;;;6.13;1.73;;;;;;;;;;4890158;29;20530;-81
2022/03/05 11:29:51;;;;;;;8.35;1.90;;;;;;;;;;4888044;29;20067;-81
2022/03/05 11:32:18;;;;;;;10.55;2.92;;;;;;;;;;4889260;29;20513;-81
2022/03/05 11:34:49;;;;;;;14.30;1.80;;;;;;;;;;4889014;29;20110;-81
2022/03/05 11:37:35;;;;;;;7.75;1.55;;;;;;;;;;4885741;29;20438;-81
2022/03/05 11:40:05;;;;;;;7.63;1.45;;;;;;;;;;4890728;29;20081;-80
2022/03/05 11:42:34;;;;;;;8.43;1.80;;;;;;;;;;4890817;29;20045;-79
2022/03/05 11:45:21;;;;;;;;;;;;;;;;;;4890018;29;20105;-81
2022/03/05 11:47:47;;;;;;;6.75;1.88;;;;;;;;;;4890215;29;19975;-81
2022/03/05 11:50:16;;;;;;;6.22;2.30;;;;;;;;;;4892003;29;20521;-81
2022/03/05 11:52:43;;;;;;;5.35;1.40;;;;;;;;;;4888948;29;20605;-81
2022/03/05 11:55:18;;;;;;;10.90;2.10;;;;;;;;;;4890183;29;20045;-81
2022/03/05 11:57:50;;;;;;;7.63;1.88;;;;;;;;;;4887474;29;20055;-77
2022/03/05 12:00:25;;;;;;;6.35;1.35;;;;;;;;;;4889510;29;20561;-81
2022/03/05 12:02:57;;;;;;;7.65;1.80;;;;;;;;;;4887964;29;20104;-79
2022/03/05 12:05:37;;;;;;;6.80;1.30;;;;;;;;;;4891553;29;20064;-79
2022/03/05 12:08:11;;;;;;;6.70;0.98;;;;;;;;;;4888928;29;20056;-80
2022/03/05 12:10:39;;;;;;;5.70;1.40;;;;;;;;;;4888746;29;20060;-79
2022/03/05 12:13:09;;;;;;;6.93;1.75;;;;;;;;;;4895473;29;20048;-80
2022/03/05 12:15:41;;;;;;;4.43;1.25;;;;;;;;;;4892636;29;20060;-82
2022/03/05 12:18:14;;;;;;;5.88;1.58;;;;;;;;;;4889266;29;20049;-79
2022/03/05 12:20:45;;;;;;;4.18;1.40;;;;;;;;;;4884107;29;20460;-82
2022/03/05 12:23:20;;;;;;;8.48;1.48;;;;;;;;;;4885942;29;20056;-81
2022/03/05 12:25:48;;;;;;;7.00;1.35;;;;;;;;;;4887444;29;20052;-80
2022/03/05 12:28:23;;;;;;;10.23;1.90;;;;;;;;;;4889737;29;20053;-80
2022/03/05 12:30:53;;;;;;;7.43;1.70;;;;;;;;;;4890050;29;20071;-81
2022/03/05 12:33:20;;;;;;;11.68;2.17;;;;;;;;;;4890505;29;20060;-81
2022/03/05 12:35:47;;;;;;;5.35;1.60;;;;;;;;;;4888293;29;20056;-80
2022/03/05 12:38:19;;;;;;;5.28;1.60;;;;;;;;;;4874117;29;20040;-84
2022/03/05 12:40:47;;;;;;;7.28;1.83;;;;;;;;;;4892134;29;20527;-82
2022/03/05 12:43:13;;;;;;;7.85;2.00;;;;;;;;;;4882787;29;20061;-82
2022/03/05 12:45:43;;;;;;;9.35;2.00;;;;;;;;;;4890695;29;20105;-82
2022/03/05 12:48:11;;;;;;;5.05;1.80;;;;;;;;;;4890460;29;20056;-81
2022/03/05 12:50:46;;;;;;;11.10;2.60;;;;;;;;;;4889888;29;20049;-83
2022/03/05 12:53:15;;;;;;;6.38;1.80;;;;;;;;;;4887471;29;20731;-81
2022/03/05 12:55:52;;;;;;;6.00;1.95;;;;;;;;;;4888622;29;20048;-80
2022/03/05 12:58:36;;;;;;;4.32;1.67;;;;;;;;;;4887944;29;20068;-80
2022/03/05 13:01:09;;;;;;;5.90;1.48;;;;;;;;;;4886759;29;20061;-80
2022/03/05 13:03:38;;;;;;;7.97;1.65;;;;;;;;;;4889953;29;20051;-81
2022/03/05 13:06:05;;;;;;;;;;;;;;;;;;4889510;29;20140;-80
2022/03/05 13:08:37;;;;;;;5.07;1.60;;;;;;;;;;4887045;29;20475;-81
2022/03/05 13:11:07;;;;;;;7.88;1.92;;;;;;;;;;4887514;29;20056;-79
2022/03/05 13:13:47;;;;;;;4.72;1.70;;;;;;;;;;4892741;29;20053;-81
2022/03/05 13:16:34;;;;;;;4.53;1.63;;;;;;;;;;4888738;29;20102;-81
2022/03/05 13:19:06;;;;;;;7.45;1.88;;;;;;;;;;4883958;29;20472;-82
2022/03/05 13:21:45;;;;;;;7.53;2.10;;;;;;;;;;4873288;29;20656;-81
2022/03/05 13:24:15;;;;;;;6.13;1.90;;;;;;;;;;4871445;29;20044;-81
2022/03/05 13:26:44;;;;;;;8.23;2.03;;;;;;;;;;4889896;29;20471;-80
2022/03/05 13:29:11;;;;;;;5.78;2.00;;;;;;;;;;4889430;29;20044;-80
2022/03/05 13:31:38;;;;;;;5.95;2.38;;;;;;;;;;4890409;29;20048;-80
2022/03/05 13:34:05;;;;;;;5.00;1.95;;;;;;;;;;4891224;29;20529;-81
2022/03/05 13:36:40;;;;;;;12.13;2.00;;;;;;;;;;4874711;29;20053;-81
2022/03/05 13:39:13;;;;;;;6.10;1.90;;;;;;;;;;4890056;29;20109;-80
2022/03/05 13:41:48;;;;;;;7.32;2.03;;;;;;;;;;4891175;29;20063;-81
2022/03/05 13:44:41;;;;;;;6.85;2.15;;;;;;;;;;4874100;29;20517;-81
2022/03/05 13:47:10;;;;;;;5.30;2.60;;;;;;;;;;4886357;29;20127;-81
2022/03/05 13:49:39;;;;;;;11.02;2.35;;;;;;;;;;4892694;29;20120;-82
2022/03/05 13:52:07;;;;;;;6.05;2.30;;;;;;;;;;4890724;29;20513;-81
2022/03/05 13:54:39;;;;;;;6.50;2.35;;;;;;;;;;4891659;29;20525;-82
2022/03/05 13:57:08;;;;;;;6.25;2.25;;;;;;;;;;4889499;29;20051;-79
2022/03/05 13:59:43;;;;;;;6.53;2.30;;;;;;;;;;4874411;29;20048;-82
2022/03/05 14:02:13;;;;;;;6.43;2.60;;;;;;;;;;4890151;29;20079;-82
2022/03/05 14:04:59;;;;;;;5.32;2.63;;;;;;;;;;4890446;29;20083;-82
2022/03/05 14:07:28;;;;;;;7.68;2.83;;;;;;;;;;4886548;29;20196;-80
2022/03/05 14:09:55;;;;;;;4.90;2.38;;;;;;;;;;4887666;29;20076;-80
2022/03/05 14:12:28;;;;;;;5.15;2.75;;;;;;;;;;4891425;29;20052;-79
2022/03/05 14:14:56;;;;;;;6.25;2.63;;;;;;;;;;4889463;29;20048;-79
2022/03/05 14:17:23;;;;;;;7.32;2.80;;;;;;;;;;4886126;29;20048;-81
2022/03/05 14:20:12;;;;;;;6.75;2.80;;;;;;;;;;4872111;29;20584;-79
2022/03/05 14:22:58;;;;;;;8.60;2.10;;;;;;;;;;4887818;29;20049;-80
2022/03/05 14:25:29;;;;;;;4.07;1.90;;;;;;;;;;4889146;29;20056;-81
2022/03/05 14:27:58;;;;;;;5.25;2.05;;;;;;;;;;4876314;29;20470;-82
2022/03/05 14:30:27;;;;;;;7.00;2.20;;;;;;;;;;4889368;29;20076;-82
2022/03/05 14:32:55;;;;;;;9.35;2.33;;;;;;;;;;4886387;29;20053;-80
2022/03/05 14:35:23;;;;;;;6.00;2.00;;;;;;;;;;4893133;29;20113;-80
2022/03/05 14:37:50;;;;;;;5.93;2.00;;;;;;;;;;4893588;29;20112;-81
2022/03/05 14:40:19;;;;;;;7.25;1.90;;;;;;;;;;4892307;29;20045;-81
2022/03/05 14:42:46;;;;;;;6.97;1.90;;;;;;;;;;4893689;29;20044;-80
2022/03/05 14:45:14;;;;;;;5.07;1.30;;;;;;;;;;4892998;29;20101;-80
2022/03/05 14:47:42;;;;;;;5.50;2.23;;;;;;;;;;4891740;29;20080;-81
2022/03/05 14:50:12;;;;;;;4.93;1.73;;;;;;;;;;4892835;29;20048;-81
2022/03/05 14:52:40;;;;;;;4.22;1.20;;;;;;;;;;4894563;29;20060;-82
2022/03/05 14:55:08;;;;;;;2.92;1.38;;;;;;;;;;4892583;29;20048;-81
2022/03/05 14:57:54;;;;;;;7.72;1.70;;;;;;;;;;4894245;29;20068;-81
2022/03/05 15:00:21;;;;;;;4.00;1.58;;;;;;;;;;4892946;29;20080;-81
2022/03/05 15:02:48;;;;;;;7.13;1.50;;;;;;;;;;4893264;29;20082;-80
2022/03/05 15:05:15;;;;;;;3.10;1.10;;;;;;;;;;4892135;29;20045;-82
2022/03/05 15:07:42;;;;;;;6.80;1.33;;;;;;;;;;4892894;29;20072;-82
2022/03/05 15:10:10;;;;;;;4.05;0.93;;;;;;;;;;4892928;29;20048;-81
2022/03/05 15:12:37;;;;;;;;;;;;;;;;;;4899741;29;20841;-81
2022/03/05 15:15:04;;;;;;;;;;;;;;;;;;4897270;29;20376;-81
2022/03/05 15:17:31;;;;;;;;;;;;;;;;;;4877781;29;19970;-81
2022/03/05 15:19:58;;;;;;;2.90;0.90;;;;;;;;;;4894547;29;20074;-81
2022/03/05 15:22:25;;;;;;;2.22;0.60;;;;;;;;;;4888758;29;20052;-83
2022/03/05 15:24:52;;;;;;;3.65;0.70;;;;;;;;;;4891243;29;20072;-82
2022/03/05 15:27:18;;;;;;;2.83;0.90;;;;;;;;;;4891565;29;20097;-84
2022/03/05 15:29:45;;;;;;;3.63;0.77;;;;;;;;;;4876671;29;20061;-85
2022/03/05 15:32:11;;;;;;;3.00;0.73;;;;;;;;;;4872424;29;20048;-86
2022/03/05 15:34:38;;;;;;;3.40;0.73;;;;;;;;;;4894544;29;20060;-84
2022/03/05 15:37:05;;;;;;;3.90;1.00;;;;;;;;;;4888317;29;20569;-85
2022/03/05 15:39:36;;;;;;;2.97;1.13;;;;;;;;;;4892529;29;20568;-85
2022/03/05 15:42:04;;;;;;;3.65;0.90;;;;;;;;;;4892583;29;20083;-86
2022/03/05 15:44:30;;;;;;;2.22;0.60;;;;;;;;;;4893344;29;20048;-85
2022/03/05 15:46:57;;;;;;;3.88;0.60;;;;;;;;;;4893501;29;20131;-88
2022/03/05 15:49:24;;;;;;;2.47;0.65;;;;;;;;;;4893023;29;20056;-85
2022/03/05 15:51:51;;;;;;;3.08;0.50;;;;;;;;;;4887614;29;20422;-84
2022/03/05 15:54:20;;;;;;;3.28;0.90;;;;;;;;;;4891054;29;20056;-86
2022/03/05 15:56:47;;;;;;;5.85;0.82;;;;;;;;;;4893593;29;20053;-85
2022/03/05 15:59:14;;;;;;;11.13;2.15;;;;;;;;;;4890547;29;20587;-84
2022/03/05 16:01:40;;;;;;;2.35;0.60;;;;;;;;;;4892576;29;20053;-85
2022/03/05 16:04:08;;;;;;;2.53;0.70;;;;;;;;;;4891751;29;20518;-84
2022/03/05 16:06:35;;;;;;;5.47;0.73;;;;;;;;;;4892582;29;20052;-91
2022/03/05 16:09:02;;;;;;;7.38;1.05;;;;;;;;;;4893422;29;20048;-85
2022/03/05 16:11:35;;;;;;;4.32;0.98;;;;;;;;;;4886576;29;20420;-87
2022/03/05 16:14:04;;;;;;;2.63;0.80;;;;;;;;;;4888512;29;20049;-83
2022/03/05 16:16:32;;;;;;;4.53;0.80;;;;;;;;;;4893847;29;20057;-84
2022/03/05 16:18:58;;;;;;;2.40;0.70;;;;;;;;;;4891529;29;20056;-86
2022/03/05 16:21:25;;;;;;;3.72;0.50;;;;;;;;;;4891065;29;20048;-88
2022/03/05 16:23:52;;;;;;;1.40;0.68;;;;;;;;;;4871431;29;20522;-86
2022/03/05 16:26:19;;;;;;;2.83;0.60;;;;;;;;;;4890111;29;20049;-88
2022/03/05 16:28:46;;;;;;;5.95;0.80;;;;;;;;;;4893001;29;20109;-82
2022/03/05 16:31:14;;;;;;;2.92;0.82;;;;;;;;;;4875875;29;20057;-87
2022/03/05 16:33:42;;;;;;;3.78;0.77;;;;;;;;;;4890312;29;20044;-86
2022/03/05 16:36:10;;;;;;;5.05;0.95;;;;;;;;;;4886165;29;20053;-87
2022/03/05 16:38:38;;;;;;;2.70;0.75;;;;;;;;;;4891388;29;20056;-85
2022/03/05 16:41:04;;;;;;;5.20;1.10;;;;;;;;;;4891081;29;20056;-89
2022/03/05 16:43:34;;;;;;;2.58;0.90;;;;;;;;;;4888986;29;20044;-86
2022/03/05 16:46:02;;;;;;;5.93;1.23;;;;;;;;;;4886558;29;20049;-85
2022/03/05 16:48:29;;;;;;;5.20;1.30;;;;;;;;;;4886894;29;20045;-87
2022/03/05 16:50:59;;;;;;;4.45;0.98;;;;;;;;;;4890343;29;20053;-85
2022/03/05 16:53:27;;;;;;;7.32;1.30;;;;;;;;;;4882709;29;20112;-85
2022/03/05 16:55:54;;;;;;;4.95;1.20;;;;;;;;;;4883711;29;20076;-86
2022/03/05 16:58:21;;;;;;;8.05;2.63;;;;;;;;;;4888986;29;20579;-87
2022/03/05 17:00:48;;;;;;;10.15;1.40;;;;;;;;;;4879244;29;20068;-86
2022/03/05 17:03:15;;;;;;;7.40;1.52;;;;;;;;;;4887322;29;20525;-87
2022/03/05 17:05:42;;;;;;;11.13;2.10;;;;;;;;;;4873502;29;20061;-87
2022/03/05 17:08:09;;;;;;;6.22;1.30;;;;;;;;;;4891952;29;20045;-86
2022/03/05 17:10:35;;;;;;;5.75;1.38;;;;;;;;;;4894204;29;20056;-85
2022/03/05 17:13:02;;;;;;;5.15;1.13;;;;;;;;;;4887549;29;20143;-86
2022/03/05 17:15:29;;;;;;;4.38;0.90;;;;;;;;;;4890423;29;20072;-85
2022/03/05 17:17:57;;;;;;;5.03;0.82;;;;;;;;;;4887113;29;20760;-85
2022/03/05 17:20:25;;;;;;;5.53;1.10;;;;;;;;;;4884160;29;20049;-84
2022/03/05 17:22:56;;;;;;;4.55;1.00;;;;;;;;;;4891640;29;20048;-82
2022/03/05 17:25:23;;;;;;;4.85;0.75;;;;;;;;;;4894420;29;20209;-81
2022/03/05 17:27:50;;;;;;;5.18;0.80;;;;;;;;;;4894179;29;20470;-82
2022/03/05 17:30:17;;;;;;;2.05;0.50;;;;;;;;;;4889904;29;20052;-83
2022/03/05 17:32:43;;;;;;;3.47;0.75;;;;;;;;;;4891916;29;20048;-81
2022/03/05 17:35:15;;;;;;;3.28;0.60;;;;;;;;;;4891217;29;20080;-86
2022/03/05 17:37:48;;;;;;;49.40;25.20;;;;;;;;;;4891439;29;20052;-85
2022/03/05 17:40:18;;;;;;;4.63;1.10;;;;;;;;;;4891539;29;20191;-83
2022/03/05 17:42:46;;;;;;;3.40;0.90;;;;;;;;;;4890832;29;20049;-84
2022/03/05 17:45:15;;;;;;;1.42;0.70;;;;;;;;;;4887491;29;20045;-82
2022/03/05 17:47:43;;;;;;;4.45;1.20;;;;;;;;;;4863198;29;20140;-84
2022/03/05 17:50:12;;;;;;;3.03;0.88;;;;;;;;;;4884885;29;20506;-83
2022/03/05 17:52:39;;;;;;;;;;;;;;;;;;4872657;29;20061;-86
2022/03/05 17:55:07;;;;;;;2.83;0.60;;;;;;;;;;4871356;29;20472;-86
2022/03/05 17:57:34;;;;;;;4.18;1.20;;;;;;;;;;4884925;29;20065;-83
2022/03/05 18:00:01;;;;;;;4.22;1.40;;;;;;;;;;4884953;29;20056;-88
2022/03/05 18:02:27;;;;;;;7.00;2.30;;;;;;;;;;4871313;29;20084;-86
2022/03/05 18:04:54;;;;;;;5.30;1.50;;;;;;;;;;4884977;29;20044;-85
2022/03/05 18:07:21;;;;;;;4.20;1.90;;;;;;;;;;4880832;29;20542;-84
2022/03/05 18:09:50;;;;;;;;;;;;;;;;;;4872372;29;20517;-86
2022/03/05 18:12:17;;;;;;;5.43;1.23;;;;;;;;;;4871104;29;19931;-83
2022/03/05 18:14:47;;;;;;;7.88;1.40;;;;;;;;;;4888901;29;20053;-85
2022/03/05 18:17:14;;;;;;;5.03;1.63;;;;;;;;;;4887109;29;20052;-88
2022/03/05 18:19:41;;;;;;;8.98;1.58;;;;;;;;;;4888584;29;20529;-85
2022/03/05 18:22:08;;;;;;;7.50;1.20;;;;;;;;;;4891812;29;20048;-86
2022/03/05 18:24:36;;;;;;;5.05;1.55;;;;;;;;;;4895347;29;20060;-85
2022/03/05 18:27:06;;;;;;;4.13;1.27;;;;;;;;;;4877784;29;20077;-87
2022/03/05 18:29:33;;;;;;;4.95;1.27;;;;;;;;;;4886173;29;20131;-86
2022/03/05 18:32:00;;;;;;;11.77;1.42;;;;;;;;;;4887318;29;20096;-87
2022/03/05 18:34:27;;;;;;;6.47;1.33;;;;;;;;;;4890864;29;20111;-85
2022/03/05 18:36:54;;;;;;;4.03;0.93;;;;;;;;;;4884938;29;20049;-85
2022/03/05 18:39:21;;;;;;;4.13;1.38;;;;;;;;;;4863671;29;20053;-84
2022/03/05 18:41:48;;;;;;;5.45;1.75;;;;;;;;;;4882666;29;20113;-84
2022/03/05 18:44:16;;;;;;;8.40;1.75;;;;;;;;;;4887299;29;20097;-85
2022/03/05 18:46:43;;;;;;;12.30;3.45;;;;;;;;;;4888487;29;20080;-83
2022/03/05 18:49:10;;;;;;;5.55;2.70;;;;;;;;;;4872539;29;20057;-89
2022/03/05 18:51:37;;;;;;;4.63;1.60;;;;;;;;;;4876368;29;20470;-84
2022/03/05 18:54:03;;;;;;;7.05;3.63;;;;;;;;;;4892983;29;20434;-86
2022/03/05 18:56:30;;;;;;;9.02;3.35;;;;;;;;;;4890704;29;20391;-88
2022/03/05 18:58:57;;;;;;;5.03;2.15;;;;;;;;;;4873679;29;20506;-90
2022/03/05 19:01:25;;;;;;;7.80;2.20;;;;;;;;;;4891342;29;20176;-89
2022/03/05 19:03:52;;;;;;;11.48;4.75;;;;;;;;;;4893687;29;20572;-90
2022/03/05 19:06:19;;;;;;;12.15;4.55;;;;;;;;;;4893729;29;20049;-89
2022/03/05 19:08:47;;;;;;;12.70;2.72;;;;;;;;;;4892865;29;20113;-89
2022/03/05 19:11:20;;;;;;;7.32;2.20;;;;;;;;;;4891989;29;20052;-85
2022/03/05 19:13:48;;;;;;;4.80;1.60;;;;;;;;;;4878349;29;20140;-89
2022/03/05 19:16:14;;;;;;;11.05;1.65;;;;;;;;;;4875529;29;20921;-87
2022/03/05 19:18:41;;;;;;;5.45;1.65;;;;;;;;;;4892576;29;20068;-86
2022/03/05 19:21:09;;;;;;;6.47;2.97;;;;;;;;;;4876401;29;20521;-85
2022/03/05 19:23:37;;;;;;;3.33;1.33;;;;;;;;;;4893824;29;20175;-85
2022/03/05 19:26:03;;;;;;;7.45;1.88;;;;;;;;;;4878805;29;20315;-87
2022/03/05 19:28:30;;;;;;;8.82;1.83;;;;;;;;;;4893800;29;20056;-85
2022/03/05 19:30:57;;;;;;;6.00;1.80;;;;;;;;;;4894270;29;20049;-87
2022/03/05 19:33:24;;;;;;;4.10;1.80;;;;;;;;;;4893631;29;20541;-87
2022/03/05 19:35:52;;;;;;;14.15;5.15;;;;;;;;;;4895825;29;20113;-88
2022/03/05 19:38:19;;;;;;;16.70;5.85;;;;;;;;;;4895299;29;20144;-88
2022/03/05 19:40:48;;;;;;;11.50;3.63;;;;;;;;;;4895704;29;20052;-85
2022/03/05 19:43:16;;;;;;;10.00;2.83;;;;;;;;;;4894544;29;20109;-87
2022/03/05 19:45:44;;;;;;;8.93;2.65;;;;;;;;;;4892590;29;20067;-86
2022/03/05 19:48:12;;;;;;;14.30;3.63;;;;;;;;;;4894022;29;20044;-85
2022/03/05 19:50:39;;;;;;;15.13;3.85;;;;;;;;;;4895473;29;20533;-87
2022/03/05 19:53:07;;;;;;;14.85;5.20;;;;;;;;;;4890673;29;20053;-85
2022/03/05 19:55:37;;;;;;;8.85;2.65;;;;;;;;;;4877687;29;20060;-85
2022/03/05 19:58:04;;;;;;;7.43;3.50;;;;;;;;;;4882411;29;20048;-85
2022/03/05 20:00:31;;;;;;;10.18;4.28;;;;;;;;;;4891018;29;20060;-86
2022/03/05 20:02:59;;;;;;;9.98;6.07;;;;;;;;;;4889188;29;20049;-85
2022/03/05 20:05:27;;;;;;;7.68;4.45;;;;;;;;;;4888810;29;20056;-87
2022/03/05 20:07:54;;;;;;;23.17;11.15;;;;;;;;;;4876386;29;20100;-87
2022/03/05 20:10:21;;;;;;;29.75;14.80;;;;;;;;;;4892828;29;20121;-88
2022/03/05 20:12:48;;;;;;;10.25;6.57;;;;;;;;;;4878160;29;20680;-85
2022/03/05 20:15:16;;;;;;;10.63;4.38;;;;;;;;;;4876030;29;20101;-85
2022/03/05 20:17:44;;;;;;;12.45;4.10;;;;;;;;;;4893961;29;20056;-86
2022/03/05 20:20:12;;;;;;;10.63;4.97;;;;;;;;;;4877968;29;20052;-86
2022/03/05 20:22:39;;;;;;;7.72;3.63;;;;;;;;;;4884123;29;20143;-86
2022/03/05 20:25:10;;;;;;;6.07;2.50;;;;;;;;;;4894206;29;20522;-87
2022/03/05 20:27:38;;;;;;;11.90;3.53;;;;;;;;;;4893788;29;20676;-89
2022/03/05 20:30:08;;;;;;;16.02;5.20;;;;;;;;;;4877084;29;20048;-84
2022/03/05 20:32:35;;;;;;;8.48;4.20;;;;;;;;;;4894264;29;20109;-84
2022/03/05 20:35:03;;;;;;;4.82;2.50;;;;;;;;;;4877901;29;20402;-84
2022/03/05 20:37:35;;;;;;;8.68;2.53;;;;;;;;;;4893404;29;20045;-86
2022/03/05 20:40:04;;;;;;;7.18;2.40;;;;;;;;;;4894669;29;20597;-85
2022/03/05 20:42:31;;;;;;;7.70;3.05;;;;;;;;;;4892870;29;20154;-88
2022/03/05 20:44:58;;;;;;;5.47;2.60;;;;;;;;;;4894381;29;20902;-88
2022/03/05 20:47:24;;;;;;;5.85;2.83;;;;;;;;;;4875051;29;20112;-89
2022/03/05 20:49:51;;;;;;;7.13;2.95;;;;;;;;;;4874914;29;20109;-89
2022/03/05 20:52:18;;;;;;;11.23;4.50;;;;;;;;;;4891244;29;20074;-89
2022/03/05 20:54:45;;;;;;;7.35;3.10;;;;;;;;;;4876953;29;20049;-89
2022/03/05 20:57:12;;;;;;;7.18;2.67;;;;;;;;;;4894553;29;20882;-89
2022/03/05 20:59:39;;;;;;;8.10;2.95;;;;;;;;;;4888937;29;20048;-89
2022/03/05 21:02:06;;;;;;;8.50;2.72;;;;;;;;;;4889677;29;20048;-87
2022/03/05 21:04:33;;;;;;;5.53;2.92;;;;;;;;;;4894229;29;20052;-88
2022/03/05 21:06:59;;;;;;;6.22;3.00;;;;;;;;;;4893615;29;20044;-87
2022/03/05 21:09:26;;;;;;;11.43;3.67;;;;;;;;;;4893643;29;20052;-88
2022/03/05 21:11:53;;;;;;;6.80;2.88;;;;;;;;;;4893960;29;20467;-87
2022/03/05 21:14:20;;;;;;;7.63;3.00;;;;;;;;;;4886557;29;20041;-90
2022/03/05 21:16:47;;;;;;;6.28;2.50;;;;;;;;;;4873235;29;20053;-88
2022/03/05 21:19:14;;;;;;;7.68;2.90;;;;;;;;;;4881567;29;20544;-87
2022/03/05 21:21:41;;;;;;;7.13;3.03;;;;;;;;;;4872896;29;20113;-85
2022/03/05 21:24:07;;;;;;;5.90;2.55;;;;;;;;;;4892045;29;20072;-86
2022/03/05 21:26:34;;;;;;;3.17;2.20;;;;;;;;;;4884909;29;20655;-86
2022/03/05 21:29:01;;;;;;;6.65;2.90;;;;;;;;;;4871332;29;20598;-85
2022/03/05 21:31:27;;;;;;;5.82;2.90;;;;;;;;;;4869230;29;20994;-87
2022/03/05 21:33:54;;;;;;;3.90;2.20;;;;;;;;;;4876540;29;20053;-87
2022/03/05 21:36:21;;;;;;;5.13;2.47;;;;;;;;;;4890500;29;20517;-87
2022/03/05 21:38:47;;;;;;;5.80;2.53;;;;;;;;;;4893194;29;20566;-89
2022/03/05 21:41:15;;;;;;;4.25;2.28;;;;;;;;;;4887187;29;20080;-85
2022/03/05 21:43:42;;;;;;;3.85;2.30;;;;;;;;;;4883675;29;20056;-87
2022/03/05 21:46:08;;;;;;;6.35;2.50;;;;;;;;;;4874205;29;20877;-85
2022/03/05 21:48:38;;;;;;;3.97;2.22;;;;;;;;;;4884828;29;20056;-83
2022/03/05 21:51:05;;;;;;;4.20;2.50;;;;;;;;;;4886603;29;20101;-84
2022/03/05 21:53:32;;;;;;;5.35;2.28;;;;;;;;;;4887077;29;20125;-83